createdAt,value
2023-04-21T00:02:01.114Z,2.80
2023-04-21T00:04:29.548Z,2.70
2023-04-21T00:07:02.212Z,2.40
2023-04-21T00:09:30.757Z,2.10
2023-04-21T00:11:59.369Z,2.90
2023-04-21T00:14:27.607Z,3.00
2023-04-21T00:16:56.034Z,2.60
2023-04-21T00:19:24.697Z,2.00
2023-04-21T00:21:58.935Z,1.30
2023-04-21T00:24:27.436Z,1.40
2023-04-21T00:26:55.606Z,2.00
2023-04-21T00:29:24.530Z,1.60
2023-04-21T00:31:53.246Z,1.50
2023-04-21T00:34:21.576Z,1.40
2023-04-21T00:36:49.761Z,1.20
2023-04-21T00:39:18.090Z,1.40
2023-04-21T00:41:48.411Z,1.20
2023-04-21T00:44:16.722Z,1.60
2023-04-21T00:46:47.253Z,1.10
2023-04-21T00:49:17.386Z,1.20
2023-04-21T00:51:46.118Z,1.20
2023-04-21T00:54:14.439Z,1.30
2023-04-21T00:56:42.719Z,1.00
2023-04-21T00:59:11.113Z,0.80
2023-04-21T01:01:40.242Z,1.30
2023-04-21T01:04:10.671Z,1.30
2023-04-21T01:06:39.172Z,1.80
2023-04-21T01:09:07.400Z,1.40
2023-04-21T01:11:39.242Z,1.10
2023-04-21T01:14:09.087Z,1.50
2023-04-21T01:16:40.091Z,1.20
2023-04-21T01:19:08.715Z,1.20
2023-04-21T01:21:43.338Z,1.10
2023-04-21T01:24:12.060Z,2.60
2023-04-21T01:26:40.487Z,2.80
2023-04-21T01:29:08.691Z,1.50
2023-04-21T01:31:36.892Z,1.50
2023-04-21T01:34:05.485Z,1.70
2023-04-21T01:36:34.047Z,1.50
2023-04-21T01:39:02.403Z,1.30
2023-04-21T01:41:31.382Z,1.30
2023-04-21T01:43:59.691Z,1.40
2023-04-21T01:46:28.190Z,1.20
2023-04-21T01:48:57.963Z,1.60
2023-04-21T01:51:27.287Z,1.70
2023-04-21T01:53:55.533Z,1.30
2023-04-21T01:56:25.298Z,1.50
2023-04-21T01:58:53.506Z,1.30
2023-04-21T02:01:21.748Z,1.30
2023-04-21T02:03:50.149Z,1.50
2023-04-21T02:06:18.565Z,1.10
2023-04-21T02:08:47.796Z,1.20
2023-04-21T02:11:16.866Z,1.50
2023-04-21T02:13:46.914Z,1.30
2023-04-21T02:16:15.563Z,1.30
2023-04-21T02:18:48.680Z,1.20
2023-04-21T02:21:16.937Z,1.90
2023-04-21T02:23:45.125Z,1.30
2023-04-21T02:26:13.366Z,1.30
2023-04-21T02:28:41.853Z,1.00
2023-04-21T02:31:10.559Z,1.00
2023-04-21T02:33:38.777Z,1.10
2023-04-21T02:36:07.476Z,1.30
2023-04-21T02:38:35.766Z,1.60
2023-04-21T02:41:04.082Z,1.10
2023-04-21T02:43:32.876Z,1.00
2023-04-21T02:46:06.589Z,1.80
2023-04-21T02:48:38.163Z,1.40
2023-04-21T02:51:15.642Z,1.40
2023-04-21T02:53:43.894Z,1.40
2023-04-21T02:56:12.219Z,1.40
2023-04-21T02:58:41.181Z,1.30
2023-04-21T03:01:09.547Z,1.40
2023-04-21T03:03:37.961Z,1.40
2023-04-21T03:06:06.600Z,1.70
2023-04-21T03:08:34.824Z,1.80
2023-04-21T03:11:03.028Z,1.10
2023-04-21T03:13:32.412Z,1.20
2023-04-21T03:16:00.611Z,1.40
2023-04-21T03:18:28.899Z,1.20
2023-04-21T03:21:01.620Z,1.40
2023-04-21T03:23:29.795Z,1.50
2023-04-21T03:25:58.634Z,1.20
2023-04-21T03:28:26.937Z,1.40
2023-04-21T03:30:55.087Z,1.40
2023-04-21T03:33:23.321Z,1.90
2023-04-21T03:35:51.518Z,1.50
2023-04-21T03:38:19.728Z,1.40
2023-04-21T03:40:48.148Z,1.10
2023-04-21T03:43:16.378Z,1.30
2023-04-21T03:45:44.710Z,1.50
2023-04-21T03:48:13.561Z,1.30
2023-04-21T03:50:41.873Z,1.60
2023-04-21T03:53:10.147Z,1.20
2023-04-21T03:55:38.483Z,1.50
2023-04-21T03:58:08.226Z,1.10
2023-04-21T04:00:36.468Z,1.40
2023-04-21T04:03:04.720Z,1.30
2023-04-21T04:05:33.057Z,1.40
2023-04-21T04:08:03.231Z,1.50
2023-04-21T04:10:31.724Z,1.70
2023-04-21T04:13:00.062Z,1.40
2023-04-21T04:15:28.488Z,1.60
2023-04-21T04:17:57.142Z,1.50
2023-04-21T04:20:25.549Z,1.70
2023-04-21T04:22:54.587Z,1.40
2023-04-21T04:25:22.945Z,1.90
2023-04-21T04:27:51.111Z,1.90
2023-04-21T04:30:20.274Z,1.80
2023-04-21T04:32:49.661Z,1.40
2023-04-21T04:35:18.578Z,1.70
2023-04-21T04:37:47.072Z,2.50
2023-04-21T04:40:15.931Z,2.00
2023-04-21T04:42:46.325Z,1.70
2023-04-21T04:45:16.858Z,1.60
2023-04-21T04:47:46.014Z,1.80
2023-04-21T04:50:14.602Z,1.90
2023-04-21T04:52:47.703Z,1.40
2023-04-21T04:55:15.881Z,1.20
2023-04-21T04:57:46.426Z,1.70
2023-04-21T05:00:15.312Z,1.60
2023-04-21T05:02:43.894Z,1.70
2023-04-21T05:05:13.755Z,2.60
2023-04-21T05:07:43.114Z,1.70
2023-04-21T05:10:11.382Z,2.00
2023-04-21T05:12:40.391Z,1.80
2023-04-21T05:15:09.270Z,1.80
2023-04-21T05:17:38.001Z,1.80
2023-04-21T05:20:08.286Z,1.60
2023-04-21T05:22:40.124Z,2.20
2023-04-21T05:25:12.747Z,1.70
2023-04-21T05:27:42.518Z,2.40
2023-04-21T05:30:11.164Z,2.30
2023-04-21T05:32:39.791Z,2.00
2023-04-21T05:35:09.452Z,1.90
2023-04-21T05:37:38.524Z,3.00
2023-04-21T05:40:07.317Z,2.60
2023-04-21T05:42:36.302Z,2.40
2023-04-21T05:45:05.766Z,2.10
2023-04-21T05:47:34.360Z,3.30
2023-04-21T05:50:02.758Z,2.00
2023-04-21T05:52:30.988Z,2.30
2023-04-21T05:54:59.925Z,2.20
2023-04-21T05:57:28.235Z,2.40
2023-04-21T05:59:58.809Z,3.10
2023-04-21T06:02:29.402Z,2.30
2023-04-21T06:04:58.581Z,2.40
2023-04-21T06:07:28.768Z,2.90
2023-04-21T06:09:58.178Z,3.20
2023-04-21T06:12:26.378Z,3.00
2023-04-21T06:14:57.866Z,2.50
2023-04-21T06:17:26.458Z,2.90
2023-04-21T06:19:56.485Z,2.90
2023-04-21T06:22:26.052Z,2.50
2023-04-21T06:24:54.657Z,2.80
2023-04-21T06:27:22.871Z,3.00
2023-04-21T06:29:56.051Z,2.80
2023-04-21T06:32:25.356Z,2.50
2023-04-21T06:34:53.747Z,3.40
2023-04-21T06:37:22.374Z,3.40
2023-04-21T06:39:51.515Z,3.10
2023-04-21T06:42:21.885Z,2.80
2023-04-21T06:44:50.929Z,3.00
2023-04-21T06:47:19.569Z,3.20
2023-04-21T06:49:47.885Z,2.50
2023-04-21T06:52:17.714Z,2.60
2023-04-21T06:54:46.532Z,2.90
2023-04-21T06:57:15.507Z,3.40
2023-04-21T06:59:45.147Z,4.90
2023-04-21T07:02:13.388Z,3.30
2023-04-21T07:04:42.187Z,3.30
2023-04-21T07:07:10.834Z,3.10
2023-04-21T07:09:39.051Z,3.30
2023-04-21T07:12:09.948Z,3.50
2023-04-21T07:14:38.318Z,3.10
2023-04-21T07:17:07.370Z,2.80
2023-04-21T07:19:38.752Z,3.30
2023-04-21T07:22:09.604Z,3.80
2023-04-21T07:24:37.974Z,2.80
2023-04-21T07:27:06.636Z,2.80
2023-04-21T07:29:34.808Z,3.70
2023-04-21T07:32:03.217Z,2.60
2023-04-21T07:34:31.448Z,2.90
2023-04-21T07:36:59.669Z,4.60
2023-04-21T07:39:29.049Z,4.30
2023-04-21T07:41:57.297Z,3.70
2023-04-21T07:44:29.645Z,3.00
2023-04-21T07:46:57.933Z,2.70
2023-04-21T07:49:26.384Z,3.00
2023-04-21T07:51:54.603Z,3.30
2023-04-21T07:54:22.895Z,3.50
2023-04-21T07:56:51.097Z,3.30
2023-04-21T07:59:19.480Z,2.70
2023-04-21T08:01:48.253Z,2.70
2023-04-21T08:04:16.636Z,2.80
2023-04-21T08:06:45.879Z,3.00
2023-04-21T08:09:14.327Z,2.50
2023-04-21T08:11:45.635Z,2.80
2023-04-21T08:14:14.046Z,3.10
2023-04-21T08:16:42.571Z,3.00
2023-04-21T08:19:11.132Z,3.30
2023-04-21T08:21:39.894Z,2.70
2023-04-21T08:24:08.244Z,2.60
2023-04-21T08:26:36.548Z,4.30
2023-04-21T08:29:07.503Z,3.60
2023-04-21T08:31:35.922Z,3.10
2023-04-21T08:34:04.716Z,2.60
2023-04-21T08:36:33.672Z,3.60
2023-04-21T08:39:01.995Z,3.50
2023-04-21T08:41:30.373Z,3.50
2023-04-21T08:43:58.652Z,3.00
2023-04-21T08:46:30.493Z,2.70
2023-04-21T08:49:01.547Z,2.70
2023-04-21T08:51:34.046Z,2.90
2023-04-21T08:54:02.344Z,3.50
2023-04-21T08:56:30.601Z,3.20
2023-04-21T08:58:59.248Z,2.70
2023-04-21T09:01:27.768Z,2.80
2023-04-21T09:04:18.461Z,5.10
2023-04-21T09:06:48.493Z,3.60
2023-04-21T09:09:17.411Z,2.40
2023-04-21T09:11:58.756Z,3.60
2023-04-21T09:14:34.426Z,3.70
2023-04-21T09:17:04.364Z,3.10
2023-04-21T09:19:36.873Z,3.30
2023-04-21T09:22:06.133Z,3.50
2023-04-21T09:24:34.803Z,3.50
2023-04-21T09:27:04.999Z,3.70
2023-04-21T09:29:37.665Z,3.60
2023-04-21T09:32:11.885Z,3.50
2023-04-21T09:34:44.373Z,3.60
2023-04-21T09:37:16.599Z,3.50
2023-04-21T09:40:03.513Z,4.40
2023-04-21T09:42:36.929Z,4.20
2023-04-21T09:45:29.060Z,4.00
2023-04-21T09:48:01.965Z,4.00
2023-04-21T09:53:21.370Z,4.50
2023-04-21T09:55:54.771Z,4.10
2023-04-21T09:58:27.115Z,4.30
2023-04-21T10:00:58.022Z,3.80
2023-04-21T10:03:29.070Z,3.80
2023-04-21T10:05:57.971Z,3.70
2023-04-21T10:08:27.065Z,4.00
2023-04-21T10:10:55.551Z,3.30
2023-04-21T10:13:25.320Z,3.70
2023-04-21T10:16:07.850Z,4.20
2023-04-21T10:18:38.827Z,4.30
2023-04-21T10:21:25.249Z,4.00
2023-04-21T10:26:36.756Z,3.60
2023-04-21T10:29:07.120Z,2.90
2023-04-21T10:31:36.952Z,4.10
2023-04-21T10:34:14.273Z,3.70
2023-04-21T10:36:54.237Z,3.80
2023-04-21T10:39:45.464Z,4.50
2023-04-21T10:42:16.502Z,3.80
2023-04-21T10:44:51.273Z,2.60
2023-04-21T10:47:32.004Z,3.80
2023-04-21T10:50:12.150Z,3.60
2023-04-21T10:52:44.415Z,3.60
2023-04-21T10:55:15.944Z,3.20
2023-04-21T10:57:45.779Z,4.00
2023-04-21T11:00:20.355Z,2.90
2023-04-21T11:02:56.178Z,3.50
2023-04-21T11:08:13.150Z,3.40
2023-04-21T11:10:50.404Z,3.00
2023-04-21T11:13:26.813Z,4.70
2023-04-21T11:16:06.380Z,4.20
2023-04-21T11:18:39.106Z,2.80
2023-04-21T11:21:18.756Z,3.00
2023-04-21T11:23:58.016Z,3.20
2023-04-21T11:26:35.215Z,4.10
2023-04-21T11:29:08.770Z,3.00
2023-04-21T11:31:38.935Z,4.40
2023-04-21T11:34:08.106Z,3.10
2023-04-21T11:36:41.831Z,3.80
2023-04-21T11:39:12.473Z,4.00
2023-04-21T11:41:43.391Z,3.50
2023-04-21T11:44:14.125Z,3.10
2023-04-21T11:46:49.523Z,3.60
2023-04-21T11:49:18.601Z,4.00
2023-04-21T11:51:47.046Z,3.90
2023-04-21T11:54:18.034Z,4.40
2023-04-21T11:56:48.545Z,3.20
2023-04-21T11:59:19.872Z,3.80
2023-04-21T12:01:51.258Z,4.90
2023-04-21T12:04:22.726Z,4.30
2023-04-21T12:07:01.920Z,4.10
2023-04-21T12:09:31.060Z,3.50
2023-04-21T12:12:04.977Z,3.60
2023-04-21T12:14:39.351Z,3.60
2023-04-21T12:17:08.460Z,4.10
2023-04-21T12:19:41.884Z,3.90
2023-04-21T12:22:12.568Z,3.60
2023-04-21T12:24:42.312Z,4.40
2023-04-21T12:27:14.351Z,3.80
2023-04-21T12:29:42.835Z,4.90
2023-04-21T12:32:11.340Z,3.70
2023-04-21T12:34:39.646Z,3.70
2023-04-21T12:37:07.875Z,3.90
2023-04-21T12:39:36.184Z,3.70
2023-04-21T12:42:04.634Z,3.10
2023-04-21T12:44:32.892Z,3.30
2023-04-21T12:47:01.330Z,3.70
2023-04-21T12:49:31.508Z,3.20
2023-04-21T12:52:00.131Z,3.60
2023-04-21T12:54:29.501Z,3.50
2023-04-21T12:56:58.329Z,2.70
2023-04-21T12:59:26.843Z,3.20
2023-04-21T13:01:55.944Z,3.40
2023-04-21T13:04:25.182Z,3.60
2023-04-21T13:06:54.500Z,4.30
2023-04-21T13:09:22.828Z,2.70
2023-04-21T13:11:52.006Z,3.10
2023-04-21T13:14:20.568Z,3.60
2023-04-21T13:16:50.054Z,3.80
2023-04-21T13:19:18.336Z,3.90
2023-04-21T13:21:54.287Z,3.80
2023-04-21T13:24:23.328Z,3.00
2023-04-21T13:26:51.601Z,3.60
2023-04-21T13:29:19.832Z,4.00
2023-04-21T13:31:48.307Z,4.70
2023-04-21T13:34:16.470Z,4.90
2023-04-21T13:36:44.785Z,4.70
2023-04-21T13:39:13.189Z,3.90
2023-04-21T13:41:41.477Z,3.40
2023-04-21T13:44:10.388Z,5.50
2023-04-21T13:46:38.824Z,3.50
2023-04-21T13:49:07.702Z,3.90
2023-04-21T13:51:36.868Z,3.50
2023-04-21T13:54:05.937Z,3.70
2023-04-21T13:56:34.202Z,4.10
2023-04-21T13:59:02.617Z,3.70
2023-04-21T14:01:31.184Z,3.60
2023-04-21T14:03:59.700Z,4.00
2023-04-21T14:06:28.243Z,4.40
2023-04-21T14:08:59.147Z,5.50
2023-04-21T14:11:27.592Z,4.70
2023-04-21T14:14:09.093Z,4.20
2023-04-21T14:16:39.118Z,4.20
2023-04-21T14:19:10.435Z,3.80
2023-04-21T14:21:38.767Z,3.80
2023-04-21T14:24:07.670Z,4.30
2023-04-21T14:26:36.357Z,4.50
2023-04-21T14:29:06.888Z,4.10
2023-04-21T14:31:35.428Z,3.70
2023-04-21T14:34:03.865Z,4.50
2023-04-21T14:36:32.314Z,4.30
2023-04-21T14:39:02.250Z,3.60
2023-04-21T14:41:31.142Z,4.10
2023-04-21T14:44:00.600Z,4.80
2023-04-21T14:46:29.402Z,3.40
2023-04-21T14:48:57.887Z,4.30
2023-04-21T14:51:26.463Z,4.40
2023-04-21T14:53:54.707Z,3.90
2023-04-21T14:56:25.486Z,4.80
2023-04-21T14:58:54.953Z,4.20
2023-04-21T15:01:25.806Z,3.50
2023-04-21T15:03:54.726Z,3.40
2023-04-21T15:06:23.351Z,3.70
2023-04-21T15:08:51.892Z,3.70
2023-04-21T15:11:23.461Z,4.00
2023-04-21T15:13:52.010Z,4.80
2023-04-21T15:16:20.535Z,3.80
2023-04-21T15:18:48.891Z,4.00
2023-04-21T15:21:19.974Z,5.30
2023-04-21T15:23:48.344Z,5.00
2023-04-21T15:26:16.733Z,4.00
2023-04-21T15:28:45.181Z,4.00
2023-04-21T15:31:13.547Z,5.40
2023-04-21T15:33:42.143Z,4.10
2023-04-21T15:36:12.900Z,4.20
2023-04-21T15:38:41.907Z,4.10
2023-04-21T15:41:10.787Z,3.40
2023-04-21T15:43:39.177Z,4.60
2023-04-21T15:46:13.380Z,4.10
2023-04-21T15:48:42.633Z,3.50
2023-04-21T15:51:11.177Z,4.90
2023-04-21T15:53:44.287Z,3.70
2023-04-21T15:56:15.064Z,4.70
2023-04-21T15:58:46.814Z,3.70
2023-04-21T16:01:15.607Z,3.30
2023-04-21T16:03:44.338Z,4.10
2023-04-21T16:06:16.029Z,3.50
2023-04-21T16:08:45.189Z,3.70
2023-04-21T16:11:14.070Z,4.40
2023-04-21T16:13:42.515Z,3.50
2023-04-21T16:16:10.808Z,4.10
2023-04-21T16:18:39.230Z,4.60
2023-04-21T16:21:07.509Z,3.70
2023-04-21T16:23:38.185Z,4.00
2023-04-21T16:26:09.265Z,4.10
2023-04-21T16:28:37.689Z,4.10
2023-04-21T16:31:08.312Z,3.20
2023-04-21T16:33:36.569Z,3.50
2023-04-21T16:36:06.009Z,3.70
2023-04-21T16:38:34.448Z,3.40
2023-04-21T16:41:02.927Z,4.00
2023-04-21T16:43:31.296Z,5.10
2023-04-21T16:45:59.651Z,3.60
2023-04-21T16:48:28.281Z,3.90
2023-04-21T16:50:56.845Z,3.70
2023-04-21T16:53:26.016Z,2.40
2023-04-21T16:55:55.053Z,3.30
2023-04-21T16:58:24.715Z,3.40
2023-04-21T17:00:56.018Z,4.10
2023-04-21T17:03:30.885Z,3.80
2023-04-21T17:06:01.217Z,4.80
2023-04-21T17:08:31.925Z,4.80
2023-04-21T17:11:00.314Z,4.20
2023-04-21T17:13:28.927Z,5.30
2023-04-21T17:15:59.088Z,4.60
2023-04-21T17:18:27.329Z,4.30
2023-04-21T17:20:55.719Z,5.00
2023-04-21T17:23:24.045Z,4.40
2023-04-21T17:25:52.392Z,3.20
2023-04-21T17:28:20.976Z,4.10
2023-04-21T17:30:51.681Z,2.80
2023-04-21T17:33:21.752Z,3.20
2023-04-21T17:36:02.780Z,3.50
2023-04-21T17:38:32.371Z,5.00
2023-04-21T17:41:02.159Z,4.10
2023-04-21T17:43:30.620Z,4.10
2023-04-21T17:45:59.003Z,3.70
2023-04-21T17:48:27.833Z,4.50
2023-04-21T17:50:56.443Z,4.70
2023-04-21T17:53:24.729Z,3.90
2023-04-21T17:55:55.972Z,4.80
2023-04-21T17:58:26.811Z,4.30
2023-04-21T18:00:55.278Z,5.40
2023-04-21T18:03:24.051Z,4.20
2023-04-21T18:05:56.018Z,4.20
2023-04-21T18:08:24.815Z,4.80
2023-04-21T18:10:55.612Z,4.30
2023-04-21T18:13:24.040Z,4.40
2023-04-21T18:15:52.348Z,3.60
2023-04-21T18:18:21.162Z,4.00
2023-04-21T18:20:50.177Z,3.60
2023-04-21T18:23:18.375Z,3.40
2023-04-21T18:25:50.354Z,3.00
2023-04-21T18:28:18.769Z,3.10
2023-04-21T18:30:47.680Z,5.00
2023-04-21T18:33:18.677Z,3.30
2023-04-21T18:35:46.976Z,3.90
2023-04-21T18:38:16.575Z,4.00
2023-04-21T18:40:44.801Z,5.90
2023-04-21T18:43:16.203Z,5.80
2023-04-21T18:45:44.468Z,5.20
2023-04-21T18:48:12.793Z,6.00
2023-04-21T18:50:41.401Z,4.90
2023-04-21T18:53:12.670Z,6.10
2023-04-21T18:55:41.071Z,4.60
2023-04-21T18:58:09.312Z,4.90
2023-04-21T19:00:39.301Z,4.40
2023-04-21T19:03:08.779Z,4.60
2023-04-21T19:05:38.508Z,4.30
2023-04-21T19:08:09.487Z,4.20
2023-04-21T19:10:38.720Z,4.80
2023-04-21T19:13:07.082Z,4.00
2023-04-21T19:15:35.726Z,4.20
2023-04-21T19:18:04.530Z,4.10
2023-04-21T19:20:33.120Z,4.30
2023-04-21T19:23:01.847Z,3.50
2023-04-21T19:25:31.968Z,4.50
2023-04-21T19:28:01.392Z,4.60
2023-04-21T19:30:29.645Z,3.50
2023-04-21T19:32:58.543Z,4.10
2023-04-21T19:35:27.371Z,4.30
2023-04-21T19:37:55.656Z,4.50
2023-04-21T19:40:24.288Z,3.90
2023-04-21T19:42:52.550Z,4.50
2023-04-21T19:45:21.051Z,4.20
2023-04-21T19:47:49.783Z,4.50
2023-04-21T19:50:23.127Z,3.70
2023-04-21T19:52:51.358Z,3.80
2023-04-21T19:55:19.685Z,4.10
2023-04-21T19:57:47.884Z,4.90
2023-04-21T20:00:16.992Z,3.80
2023-04-21T20:02:45.684Z,4.00
2023-04-21T20:05:14.240Z,4.00
2023-04-21T20:07:42.465Z,4.30
2023-04-21T20:10:11.214Z,4.50
2023-04-21T20:12:39.423Z,3.90
2023-04-21T20:15:08.633Z,4.30
2023-04-21T20:17:38.427Z,4.70
2023-04-21T20:20:07.334Z,3.80
2023-04-21T20:22:36.184Z,4.00
2023-04-21T20:25:05.041Z,4.00
2023-04-21T20:27:34.364Z,3.70
2023-04-21T20:30:03.057Z,4.90
2023-04-21T20:32:31.706Z,4.50
2023-04-21T20:34:59.909Z,4.70
2023-04-21T20:37:28.530Z,4.10
2023-04-21T20:40:00.567Z,4.40
2023-04-21T20:42:28.888Z,3.90
2023-04-21T20:44:57.240Z,3.90
2023-04-21T20:47:25.698Z,4.50
2023-04-21T20:49:54.940Z,3.70
2023-04-21T20:52:23.386Z,3.80
2023-04-21T20:54:51.648Z,4.20
2023-04-21T20:57:19.888Z,4.30
2023-04-21T20:59:48.044Z,4.10
2023-04-21T21:02:16.422Z,4.30
2023-04-21T21:04:47.378Z,4.30
2023-04-21T21:07:15.903Z,5.00
2023-04-21T21:09:45.285Z,5.50
2023-04-21T21:12:13.541Z,4.20
2023-04-21T21:14:41.866Z,4.50
2023-04-21T21:17:13.184Z,4.60
2023-04-21T21:19:41.699Z,4.00
2023-04-21T21:22:10.426Z,3.60
2023-04-21T21:24:38.654Z,3.90
2023-04-21T21:27:08.196Z,3.70
2023-04-21T21:29:36.652Z,3.30
2023-04-21T21:32:05.206Z,3.80
2023-04-21T21:34:33.569Z,4.80
2023-04-21T21:37:01.812Z,5.00
2023-04-21T21:39:29.979Z,5.20
2023-04-21T21:41:58.504Z,4.00
2023-04-21T21:44:26.737Z,4.30
2023-04-21T21:46:54.902Z,4.10
2023-04-21T21:49:23.138Z,4.00
2023-04-21T21:51:52.986Z,3.80
2023-04-21T21:54:21.557Z,3.70
2023-04-21T21:56:49.819Z,3.60
2023-04-21T21:59:18.043Z,3.40
2023-04-21T22:01:46.357Z,4.80
2023-04-21T22:04:14.748Z,4.60
2023-04-21T22:06:45.546Z,5.40
2023-04-21T22:09:14.125Z,3.90
2023-04-21T22:11:42.371Z,5.00
2023-04-21T22:14:21.590Z,4.10
2023-04-21T22:16:53.418Z,5.70
2023-04-21T22:19:21.795Z,3.90
2023-04-21T22:21:50.020Z,4.80
2023-04-21T22:24:18.539Z,4.80
2023-04-21T22:26:47.668Z,4.40
2023-04-21T22:29:15.983Z,4.80
2023-04-21T22:31:44.362Z,3.60
2023-04-21T22:34:15.149Z,4.30
2023-04-21T22:36:43.740Z,3.70
2023-04-21T22:39:12.005Z,4.30
2023-04-21T22:41:40.312Z,3.90
2023-04-21T22:44:09.102Z,5.40
2023-04-21T22:46:38.023Z,5.40
2023-04-21T22:49:06.853Z,4.10
2023-04-21T22:51:35.222Z,4.70
2023-04-21T22:54:03.829Z,5.20
2023-04-21T22:56:32.130Z,5.60
2023-04-21T22:59:00.549Z,6.60
2023-04-21T23:01:29.514Z,5.80
2023-04-21T23:03:58.052Z,5.80
2023-04-21T23:06:26.929Z,5.50
2023-04-21T23:08:55.976Z,7.10
2023-04-21T23:11:24.560Z,6.40
2023-04-21T23:13:52.825Z,7.30
2023-04-21T23:16:21.159Z,7.00
2023-04-21T23:18:49.707Z,7.10
2023-04-21T23:21:18.053Z,7.80
2023-04-21T23:23:46.412Z,7.90
2023-04-21T23:26:14.797Z,7.80
2023-04-21T23:28:42.979Z,7.40
2023-04-21T23:31:11.370Z,7.80
2023-04-21T23:33:39.552Z,7.70
2023-04-21T23:36:07.859Z,6.90
2023-04-21T23:38:36.185Z,6.70
2023-04-21T23:41:04.380Z,6.90
2023-04-21T23:43:34.694Z,7.10
2023-04-21T23:46:03.639Z,6.20
2023-04-21T23:48:34.485Z,6.30
2023-04-21T23:51:02.904Z,6.60
2023-04-21T23:53:31.380Z,6.50
2023-04-21T23:55:59.580Z,5.20
2023-04-21T23:58:28.268Z,6.50
